AirNav   Air Wisconsin Up To $57,000 Bonus
 
 1061 users online  

2NY0 Catskill Valley Airpark
South Cairo, New York, USA

GOING TO SOUTH CAIRO?


FAA INFORMATION EFFECTIVE 15 AUGUST 2019

Location

FAA Identifier: 2NY0
Lat/Long: 42-16-50.3110N 073-57-10.4710W
42-16.838517N 073-57.174517W
42.2806419,-73.9529086
(estimated)
Elevation: 190 ft. / 58 m (estimated)
Variation: 14W (1985)
From city: 3 miles SE of SOUTH CAIRO, NY
Time zone: UTC -4 (UTC -5 during Standard Time)
Zip code: 12451

Airport Operations

Airport use: Private use. Permission required prior to landing
Activation date: 06/1962
Control tower: no
ARTCC: BOSTON CENTER
FSS: BURLINGTON FLIGHT SERVICE STATION
Attendance: UNATNDD
Wind indicator: no
Segmented circle: no

Airport Communications

WX AWOS-3 at 1B1 (11 nm E): 133.525 (518-828-2577)

Nearby radio navigation aids

VOR radial/distance  VOR name  Freq  Var
ALBr206/28.8ALBANY VORTAC115.3013W
PWLr345/34.4PAWLING VOR/DME114.3012W
IGNr003/37.4KINGSTON VOR/DME117.6012W

 
NDB name  Hdg/Dist  Freq  Var  ID
PHILMONT292/10.327213WPFH .--. ..-. ....
GREAT BARRINGTON298/25.139514WGBR --. -... .-.
HUNTER195/34.435614WHEU .... . ..-

Airport Services

Runway Information

Runway 2/20

Dimensions: 1475 x 50 ft. / 450 x 15 m
Surface: turf
RUNWAY 2  RUNWAY 20
Traffic pattern: leftleft

Airport Ownership and Management from official FAA records

Ownership: Privately-owned
Owner: CLEMENTS J HOOVLER JR
BOX 44
SOUTH CAIRO, NY 12482
Phone 518-622-3307
Manager: C J HOOVLER JR
BOX 44
SOUTH CAIRO, NY 12482
Phone 518-622-3307

Airport Operational Statistics

Aircraft based on the field: 2
Single engine airplanes: 2
    

Additional Remarks

FOR CD CTC ALBANY APCH AT 518-862-2299.

Instrument Procedures

There are no published instrument procedures at 2NY0.

Some nearby airports with instrument procedures:

1B1 - Columbia County Airport (11 nm E)
4B0 - South Albany Airport (18 nm N)
20N - Kingston-Ulster Airport (18 nm S)
KGBR - Walter J Koladza Airport (25 nm E)
KALB - Albany International Airport (29 nm N)
 
Loc | Ops | Rwys | IFR | FBO | Links
Com | Nav | Svcs | Stats | Notes
Area around 2NY0 (Catskill Valley Airpark)
 
Road maps at: MapQuest Bing Google
 
Aerial photo
No photo
 
Sectional chart

 
Airport distance calculator
Flying to Catskill Valley Airpark? Find the distance to fly.

From to 2NY0

Sunrise and sunset
Times for 18-Aug-2019
 Local
(UTC-4)
 Zulu
(UTC)
Morning civil twilight05:3709:37
Sunrise06:0710:07
Sunset19:5223:52
Evening civil twilight20:2200:22

Current date and time
Zulu (UTC)  18-Aug-2019 16:28:06
Local (UTC-4)  18-Aug-2019 12:28:06
 
METAR
KALB 
29nm N 
181551Z 00000KT 10SM OVC010 23/19 A3002 RMK AO2 SLP165 T02280189
KPSF 
31nm E 
181554Z AUTO 24006KT 10SM CLR 25/20 A3004 RMK AO2 SLP148 T02500200
KSCH 
34nm N 
181545Z 00000KT 10SM OVC011 24/21 A3003
TAF
KALB 
29nm N 
181354Z 1814/1912 VRB03KT 3SM BR OVC005 FM181500 17004KT P6SM SCT050 BKN250 FM181800 19006KT P6SM VCSH BKN050 TEMPO 1820/1824 4SM -TSRA BR OVC025CB FM190200 VRB03KT P6SM VCSH BKN050 FM190800 17003KT 2SM BR BKN008
KPSF 
31nm E 
181356Z 1814/1912 20003KT 1SM BR OVC002 FM181500 22004KT P6SM SCT035 BKN250 FM181900 22007KT P6SM VCSH BKN040 TEMPO 1821/1901 4SM -TSRA OVC025CB FM190300 VRB03KT P6SM VCSH OVC040 FM190800 VRB03KT 2SM BR BKN008
NOTAMs
Click for the latest NOTAMs
NOTAMs are issued by the DoD/FAA and will open in a separate window not controlled by AirNav.

 

 
 

Would you like to see your business listed on this page?

 If your business provides an interesting product or service to pilots, flight crews, aircraft, or users of the Catskill Valley Airpark, you should consider listing it here.  To start the listing process, click on the button below
 
Add a business
 

Other Pages about Catskill Valley Airpark

Update a link
 
Copyright © AirNav, LLC. All rights reserved. Privacy Policy  Contact